Time;durP1;ratioP1;P1;durP2;ratioP2;P2;SDS_P1;SDS_P2;PMS_P1;PMS_P2;Temp;Humidity;BMP_temperature;BMP_pressure;BME280_temperature;BME280_humidity;BME280_pressure;Samples;Min_cycle;Max_cycle;Signal;HPM_P1;HPM_P2
2021/09/14 00:01:03;;;;;;;23.85;17.23;;;17.10;99.90;;;;;;4994916;28;20180;-79
2021/09/14 00:03:29;;;;;;;21.02;16.45;;;17.30;99.90;;;;;;4994984;28;20169;-79
2021/09/14 00:05:54;;;;;;;20.95;16.67;;;17.30;99.90;;;;;;4993286;28;20507;-79
2021/09/14 00:08:20;;;;;;;24.25;17.77;;;17.30;99.90;;;;;;4994479;28;20217;-79
2021/09/14 00:10:46;;;;;;;28.33;17.77;;;17.30;99.90;;;;;;4994561;28;20177;-79
2021/09/14 00:13:12;;;;;;;22.90;16.27;;;17.30;99.90;;;;;;4994588;28;20244;-79
2021/09/14 00:15:37;;;;;;;23.20;17.88;;;17.20;99.90;;;;;;4994356;28;20256;-79
2021/09/14 00:18:04;;;;;;;23.73;15.85;;;17.20;99.90;;;;;;4994336;28;20260;-79
2021/09/14 00:20:29;;;;;;;19.67;16.20;;;17.20;99.90;;;;;;4993233;28;20638;-79
2021/09/14 00:22:55;;;;;;;25.65;17.70;;;17.00;99.90;;;;;;4994272;28;20211;-79
2021/09/14 00:25:21;;;;;;;23.30;17.92;;;17.00;99.90;;;;;;4994333;28;20209;-79
2021/09/14 00:27:46;;;;;;;33.28;18.13;;;17.10;99.90;;;;;;4994563;28;20305;-79
2021/09/14 00:30:12;;;;;;;23.48;17.88;;;17.20;99.90;;;;;;4994005;28;20196;-79
2021/09/14 00:32:38;;;;;;;27.55;19.17;;;17.20;99.90;;;;;;4992931;28;20587;-79
2021/09/14 00:35:05;;;;;;;29.00;17.42;;;17.30;99.90;;;;;;4992838;28;20553;-79
2021/09/14 00:37:30;;;;;;;30.15;19.15;;;17.30;99.90;;;;;;4994069;28;20614;-79
2021/09/14 00:39:56;;;;;;;22.45;17.83;;;17.10;99.90;;;;;;4994105;28;20192;-78
2021/09/14 00:42:22;;;;;;;27.55;18.80;;;17.10;99.90;;;;;;4992606;28;20176;-78
2021/09/14 00:44:47;;;;;;;21.58;18.25;;;17.00;99.90;;;;;;4993611;28;20184;-79
2021/09/14 00:47:14;;;;;;;29.50;20.15;;;16.90;99.90;;;;;;4994103;28;20168;-79
2021/09/14 00:49:39;;;;;;;23.73;19.15;;;16.90;99.90;;;;;;4992587;28;20557;-78
2021/09/14 00:52:07;;;;;;;33.30;19.27;;;16.90;99.90;;;;;;4993941;28;20180;-78
2021/09/14 00:54:36;;;;;;;31.40;20.63;;;16.90;99.90;;;;;;4994177;28;20260;-79
2021/09/14 00:57:03;;;;;;;27.40;18.40;;;17.00;99.90;;;;;;4993784;28;20173;-80
2021/09/14 00:59:29;;;;;;;26.75;20.45;;;17.00;99.90;;;;;;4992289;28;20200;-79
2021/09/14 01:01:55;;;;;;;25.15;20.00;;;16.90;99.90;;;;;;4993863;28;20177;-79
2021/09/14 01:04:20;;;;;;;28.10;19.52;;;16.90;99.90;;;;;;4993528;28;20260;-79
2021/09/14 01:06:46;;;;;;;24.45;18.52;;;16.80;99.90;;;;;;4992467;28;20181;-77
2021/09/14 01:09:13;;;;;;;27.88;18.42;;;16.70;99.90;;;;;;4993046;28;20644;-77
2021/09/14 01:11:40;;;;;;;24.10;19.23;;;16.70;99.90;;;;;;4993442;28;20172;-77
2021/09/14 01:14:08;;;;;;;29.45;21.02;;;16.60;99.90;;;;;;4993545;28;20173;-77
2021/09/14 01:16:36;;;;;;;28.17;20.65;;;16.60;99.90;;;;;;4993482;28;20263;-77
2021/09/14 01:19:06;;;;;;;28.50;21.15;;;16.50;99.90;;;;;;4993562;28;20653;-77
2021/09/14 01:21:32;;;;;;;43.55;22.38;;;16.30;99.90;;;;;;4993588;28;20181;-77
2021/09/14 01:23:58;;;;;;;30.33;21.25;;;16.20;99.90;;;;;;4993518;28;20629;-78
2021/09/14 01:26:25;;;;;;;31.83;21.42;;;16.10;99.90;;;;;;4993385;28;20176;-77
2021/09/14 01:28:51;;;;;;;30.48;21.90;;;16.10;99.90;;;;;;4992946;28;20215;-77
2021/09/14 01:31:17;;;;;;;31.70;22.52;;;16.20;99.90;;;;;;4993428;28;20533;-77
2021/09/14 01:33:51;;;;;;;34.42;22.27;;;16.20;99.90;;;;;;4992050;28;20185;-78
2021/09/14 01:36:19;;;;;;;31.95;23.17;;;16.10;99.90;;;;;;4993267;28;20711;-77
2021/09/14 01:38:45;;;;;;;33.65;22.52;;;16.10;99.90;;;;;;4991841;28;20185;-77
2021/09/14 01:41:11;;;;;;;31.75;22.98;;;16.00;99.90;;;;;;4993330;28;20177;-77
2021/09/14 01:43:39;;;;;;;30.98;21.65;;;16.00;99.90;;;;;;4993371;28;20165;-77
2021/09/14 01:46:05;;;;;;;33.10;22.13;;;15.90;99.90;;;;;;4993367;28;20180;-77
2021/09/14 01:48:31;;;;;;;33.35;21.85;;;15.70;99.90;;;;;;4993156;28;20220;-77
2021/09/14 01:50:57;;;;;;;40.92;22.80;;;15.70;99.90;;;;;;4992385;28;20173;-77
2021/09/14 01:53:24;;;;;;;34.20;22.17;;;15.80;99.90;;;;;;4993746;28;20174;-77
2021/09/14 01:55:51;;;;;;;39.65;23.60;;;15.90;99.90;;;;;;4993707;28;20197;-77
2021/09/14 01:58:17;;;;;;;36.63;24.92;;;16.00;99.90;;;;;;4993064;28;20197;-77
2021/09/14 02:00:54;;;;;;;33.53;23.88;;;16.00;99.90;;;;;;4993804;28;20534;-77
2021/09/14 02:03:56;;;;;;;38.83;23.48;;;15.90;99.90;;;;;;4993705;28;20164;-77
2021/09/14 02:07:15;;;;;;;28.67;21.83;;;15.90;99.90;;;;;;4990515;28;20173;-77
2021/09/14 02:39:12;;;;;;;46.95;25.35;;;15.90;99.90;;;;;;4996372;28;20200;-76
2021/09/14 02:44:22;;;;;;;36.78;25.17;;;15.80;99.90;;;;;;4995903;28;20268;-77
2021/09/14 03:00:28;;;;;;;41.95;26.00;;;15.70;99.90;;;;;;4995957;28;20633;-77
2021/09/14 03:02:54;;;;;;;53.08;26.42;;;15.70;99.90;;;;;;4996194;28;20169;-77
2021/09/14 03:05:19;;;;;;;46.33;26.65;;;15.70;99.90;;;;;;4995767;28;20176;-77
2021/09/14 03:07:45;;;;;;;37.65;24.75;;;15.50;99.90;;;;;;4995872;28;20169;-77
2021/09/14 03:10:11;;;;;;;35.55;24.65;;;15.40;99.90;;;;;;4995548;28;20213;-77
2021/09/14 03:12:36;;;;;;;42.33;25.85;;;15.30;99.90;;;;;;4995625;28;20173;-77
2021/09/14 03:15:03;;;;;;;43.88;26.70;;;15.30;99.90;;;;;;4995667;28;20181;-77
2021/09/14 03:17:28;;;;;;;38.17;25.48;;;15.40;99.90;;;;;;4995676;28;20253;-77
2021/09/14 03:19:54;;;;;;;40.85;24.08;;;15.40;99.90;;;;;;4995935;28;20773;-77
2021/09/14 03:22:19;;;;;;;39.13;25.00;;;15.30;99.90;;;;;;4996509;28;20570;-77
2021/09/14 03:24:45;;;;;;;38.50;25.10;;;15.40;99.90;;;;;;4996350;28;20174;-77
2021/09/14 03:27:11;;;;;;;36.95;23.88;;;15.20;99.90;;;;;;4996263;28;20169;-78
2021/09/14 03:29:37;;;;;;;40.22;26.15;;;15.20;99.90;;;;;;4996037;28;20213;-77
2021/09/14 03:32:03;;;;;;;36.00;23.98;;;15.20;99.90;;;;;;4995159;28;20197;-77
2021/09/14 03:34:28;;;;;;;33.70;23.80;;;15.20;99.90;;;;;;4995712;28;20177;-76
2021/09/14 03:36:54;;;;;;;36.65;24.05;;;15.30;99.90;;;;;;4995401;28;20665;-77
2021/09/14 03:39:19;;;;;;;36.45;23.67;;;15.20;99.90;;;;;;4996498;28;20642;-78
2021/09/14 03:41:45;;;;;;;33.22;24.02;;;15.20;99.90;;;;;;5015841;28;20169;-91
2021/09/14 03:44:10;;;;;;;38.60;23.85;;;15.30;99.90;;;;;;5016985;28;20193;-93
2021/09/14 03:46:36;;;;;;;37.90;24.20;;;15.30;99.90;;;;;;4997852;28;20173;-87
2021/09/14 03:49:02;;;;;;;40.45;25.05;;;15.40;99.90;;;;;;4996136;28;20638;-94
2021/09/14 03:51:29;;;;;;;47.47;25.70;;;15.60;99.90;;;;;;4996185;28;20208;-77
2021/09/14 03:53:55;;;;;;;43.28;24.17;;;15.70;99.90;;;;;;4994836;28;20173;-78
2021/09/14 03:56:20;;;;;;;42.55;24.17;;;15.70;99.90;;;;;;4994879;28;20182;-77
2021/09/14 03:58:46;;;;;;;40.38;25.08;;;15.70;99.90;;;;;;4994929;28;20324;-78
2021/09/14 04:01:11;;;;;;;40.30;24.52;;;15.80;99.90;;;;;;4994590;28;20164;-77
2021/09/14 04:08:52;;;;;;;34.55;24.58;;;16.10;99.90;;;;;;4994698;28;20213;-78
2021/09/14 04:11:22;;;;;;;38.58;25.13;;;16.20;99.90;;;;;;4994580;28;20236;-77
2021/09/14 04:13:52;;;;;;;51.95;25.17;;;16.20;99.90;;;;;;4994247;28;20180;-77
2021/09/14 04:16:19;;;;;;;49.65;24.67;;;16.00;99.90;;;;;;4995023;28;20181;-78
2021/09/14 04:18:45;;;;;;;39.00;25.45;;;15.90;99.90;;;;;;4994617;28;20736;-78
2021/09/14 04:21:11;;;;;;;44.67;25.95;;;15.80;99.90;;;;;;4993283;28;20196;-77
2021/09/14 04:23:36;;;;;;;42.63;25.77;;;15.90;99.90;;;;;;4994465;28;20541;-78
2021/09/14 04:26:02;;;;;;;36.95;24.33;;;15.90;99.90;;;;;;4994330;28;20252;-78
2021/09/14 04:28:28;;;;;;;45.25;25.92;;;15.90;99.90;;;;;;4994014;28;20681;-80
2021/09/14 04:30:54;;;;;;;46.78;25.45;;;15.80;99.90;;;;;;4994349;28;20169;-78
2021/09/14 04:33:20;;;;;;;44.83;24.50;;;15.60;99.90;;;;;;4994762;28;20216;-79
2021/09/14 04:35:45;;;;;;;35.92;25.10;;;15.60;99.90;;;;;;4993030;28;20658;-78
2021/09/14 04:38:11;;;;;;;44.45;27.08;;;15.50;99.90;;;;;;4993848;28;20503;-78
2021/09/14 04:40:37;;;;;;;36.97;24.63;;;15.30;99.90;;;;;;4992567;28;20215;-77
2021/09/14 04:43:02;;;;;;;37.95;24.90;;;15.40;99.90;;;;;;4994484;28;20668;-78
2021/09/14 04:45:28;;;;;;;40.83;25.65;;;15.40;99.90;;;;;;4992733;28;20228;-78
2021/09/14 04:47:54;;;;;;;42.67;26.83;;;15.40;99.90;;;;;;4994060;28;20592;-77
2021/09/14 04:50:19;;;;;;;45.58;26.77;;;15.40;99.90;;;;;;4993938;28;20224;-78
2021/09/14 04:52:45;;;;;;;44.40;26.65;;;15.50;99.90;;;;;;4994075;28;20197;-77
2021/09/14 04:55:11;;;;;;;45.08;25.83;;;15.50;99.90;;;;;;4994075;28;20579;-80
2021/09/14 04:57:36;;;;;;;42.90;26.65;;;15.40;99.90;;;;;;4993978;28;20157;-78
2021/09/14 05:00:04;;;;;;;54.15;28.00;;;15.50;99.90;;;;;;4992541;28;20252;-82
2021/09/14 05:02:30;;;;;;;37.60;24.23;;;15.60;99.90;;;;;;4993414;28;20176;-77
2021/09/14 05:04:57;;;;;;;38.95;25.70;;;15.40;99.90;;;;;;4992379;28;20176;-78
2021/09/14 05:07:23;;;;;;;47.50;25.38;;;15.40;99.90;;;;;;4993432;28;20196;-80
2021/09/14 05:09:48;;;;;;;46.10;27.35;;;15.40;99.90;;;;;;4992245;28;20236;-77
2021/09/14 05:12:14;;;;;;;52.65;26.50;;;15.40;99.90;;;;;;4993296;28;20174;-77
2021/09/14 05:14:39;;;;;;;48.17;27.30;;;15.50;99.90;;;;;;4993495;28;20173;-76
2021/09/14 05:17:05;;;;;;;46.13;26.48;;;15.60;99.90;;;;;;4993625;28;20532;-77
2021/09/14 05:19:32;;;;;;;48.17;27.10;;;15.60;99.90;;;;;;4992475;28;20235;-77
2021/09/14 05:21:59;;;;;;;41.13;24.92;;;15.50;99.90;;;;;;4993076;28;20177;-76
2021/09/14 05:24:26;;;;;;;48.10;25.45;;;15.50;99.90;;;;;;4992612;28;20162;-76
2021/09/14 05:26:52;;;;;;;38.35;24.98;;;15.50;99.90;;;;;;4992938;28;20177;-77
2021/09/14 05:29:18;;;;;;;59.35;26.08;;;15.40;99.90;;;;;;4990986;28;20216;-77
2021/09/14 05:31:43;;;;;;;43.60;25.63;;;15.40;99.90;;;;;;4992813;28;20248;-76
2021/09/14 05:34:09;;;;;;;52.33;27.73;;;15.30;99.90;;;;;;4991590;28;20208;-76
2021/09/14 05:36:36;;;;;;;45.75;27.35;;;15.30;99.90;;;;;;4992971;28;20172;-78
2021/09/14 05:39:01;;;;;;;41.90;26.30;;;15.20;99.90;;;;;;4992609;28;20196;-77
2021/09/14 05:41:27;;;;;;;40.15;25.23;;;15.10;99.90;;;;;;4992116;28;20467;-76
2021/09/14 05:43:53;;;;;;;42.97;25.30;;;15.10;99.90;;;;;;4992506;28;20618;-78
2021/09/14 05:46:18;;;;;;;42.63;26.05;;;15.10;99.90;;;;;;4992838;28;20169;-76
2021/09/14 05:48:44;;;;;;;45.10;26.65;;;15.20;99.90;;;;;;4992412;28;20701;-77
2021/09/14 05:51:10;;;;;;;47.38;26.23;;;15.20;99.90;;;;;;4992712;28;20224;-77
2021/09/14 05:53:35;;;;;;;54.10;27.00;;;15.30;99.90;;;;;;4992347;28;20172;-76
2021/09/14 05:56:01;;;;;;;45.13;27.05;;;15.40;99.90;;;;;;4998117;28;20306;-76
2021/09/14 05:58:27;;;;;;;45.85;26.80;;;15.30;99.90;;;;;;4998769;28;20203;-78
2021/09/14 06:00:52;;;;;;;42.80;25.35;;;15.30;99.90;;;;;;4997727;28;20173;-78
2021/09/14 06:03:18;;;;;;;42.58;27.75;;;15.30;99.90;;;;;;4999049;28;20172;-78
2021/09/14 06:05:43;;;;;;;43.38;25.00;;;15.40;99.90;;;;;;4998523;28;20770;-78
2021/09/14 06:08:09;;;;;;;46.20;24.63;;;15.40;99.90;;;;;;4998754;28;20197;-78
2021/09/14 06:10:35;;;;;;;44.83;26.50;;;15.70;99.90;;;;;;4998643;28;20283;-78
2021/09/14 06:13:00;;;;;;;43.42;26.75;;;15.70;99.90;;;;;;4997216;28;20634;-80
2021/09/14 06:15:26;;;;;;;45.53;26.05;;;15.70;99.90;;;;;;4998673;28;20177;-78
2021/09/14 06:17:51;;;;;;;40.20;25.27;;;15.80;99.90;;;;;;4998363;28;20176;-79
2021/09/14 06:20:17;;;;;;;43.80;26.85;;;15.90;99.90;;;;;;4996617;28;20201;-80
2021/09/14 06:22:43;;;;;;;40.08;25.77;;;16.20;99.90;;;;;;4998497;28;20573;-79
2021/09/14 06:25:09;;;;;;;41.35;24.30;;;16.20;99.90;;;;;;4996015;28;20173;-78
2021/09/14 06:27:35;;;;;;;38.25;23.00;;;16.20;99.90;;;;;;4998378;28;20248;-80
2021/09/14 06:30:02;;;;;;;48.50;24.35;;;16.40;99.90;;;;;;4997163;28;20605;-80
2021/09/14 06:32:27;;;;;;;35.58;24.08;;;16.30;99.90;;;;;;4996400;28;20720;-81
2021/09/14 06:34:53;;;;;;;42.85;24.30;;;16.10;99.90;;;;;;4998048;28;20169;-79
2021/09/14 06:37:18;;;;;;;40.85;24.63;;;16.20;99.90;;;;;;4996847;28;20173;-79
2021/09/14 06:39:44;;;;;;;45.80;24.38;;;16.40;99.90;;;;;;4997811;28;20193;-83
2021/09/14 06:42:10;;;;;;;40.55;24.15;;;16.30;99.90;;;;;;4998315;28;20165;-80
2021/09/14 06:44:35;;;;;;;35.53;22.20;;;16.30;99.90;;;;;;4998347;28;20165;-81
2021/09/14 06:47:01;;;;;;;41.67;23.48;;;16.20;99.90;;;;;;4998403;28;20199;-80
2021/09/14 06:49:29;;;;;;;30.90;22.50;;;16.30;99.90;;;;;;4997943;28;20283;-78
2021/09/14 06:51:56;;;;;;;35.60;23.10;;;16.40;99.90;;;;;;4997120;28;20161;-78
2021/09/14 06:54:21;;;;;;;43.58;22.75;;;16.40;99.90;;;;;;4997702;28;20165;-79
2021/09/14 06:56:47;;;;;;;40.38;21.67;;;16.60;99.90;;;;;;4997925;28;20173;-79
2021/09/14 06:59:14;;;;;;;34.72;22.02;;;16.50;99.90;;;;;;4998187;28;20184;-79
2021/09/14 07:01:39;;;;;;;36.67;21.23;;;16.60;99.90;;;;;;4998253;28;20173;-81
2021/09/14 07:04:05;;;;;;;42.53;22.00;;;16.50;99.90;;;;;;4997796;28;20712;-79
2021/09/14 07:06:31;;;;;;;34.05;21.80;;;16.50;99.90;;;;;;4994897;28;20162;-79
2021/09/14 07:08:56;;;;;;;38.80;21.80;;;16.70;99.90;;;;;;4994439;28;20219;-79
2021/09/14 07:11:22;;;;;;;38.63;21.48;;;16.50;99.90;;;;;;4993931;28;20671;-79
2021/09/14 07:13:48;;;;;;;36.78;20.92;;;16.60;99.90;;;;;;4995505;28;20173;-78
2021/09/14 07:16:13;;;;;;;26.38;19.70;;;16.70;99.90;;;;;;4995234;28;20173;-79
2021/09/14 07:18:41;;;;;;;35.67;19.98;;;16.90;99.90;;;;;;4995531;28;20193;-78
2021/09/14 07:21:07;;;;;;;31.48;20.60;;;16.90;99.90;;;;;;4995538;28;20578;-79
2021/09/14 07:23:32;;;;;;;35.15;20.92;;;17.10;99.90;;;;;;4995265;28;20193;-78
2021/09/14 07:25:58;;;;;;;30.67;18.73;;;17.30;99.90;;;;;;4995161;28;20541;-78
2021/09/14 07:28:24;;;;;;;31.08;20.40;;;17.30;99.90;;;;;;4995288;28;20217;-78
2021/09/14 07:30:50;;;;;;;25.65;18.83;;;17.60;99.90;;;;;;4993705;28;20263;-79
2021/09/14 07:33:16;;;;;;;35.78;19.75;;;17.90;99.90;;;;;;4995529;28;20166;-78
2021/09/14 07:35:42;;;;;;;27.48;19.65;;;18.10;99.90;;;;;;4995152;28;20188;-78
2021/09/14 07:38:09;;;;;;;28.27;18.67;;;18.10;99.90;;;;;;4995097;28;20174;-78
2021/09/14 07:40:35;;;;;;;28.75;17.38;;;18.20;99.90;;;;;;4995352;28;20180;-78
2021/09/14 07:43:01;;;;;;;25.27;16.95;;;18.10;99.90;;;;;;4993728;28;20169;-78
2021/09/14 07:45:27;;;;;;;23.85;16.88;;;18.30;99.90;;;;;;4994613;28;20181;-78
2021/09/14 07:47:53;;;;;;;25.50;17.00;;;18.20;99.90;;;;;;4995182;28;20618;-78
2021/09/14 07:50:18;;;;;;;29.45;16.98;;;18.50;99.90;;;;;;4993596;28;20562;-78
2021/09/14 07:52:44;;;;;;;24.92;16.90;;;18.60;99.90;;;;;;4995254;28;20520;-78
2021/09/14 07:55:10;;;;;;;23.55;15.82;;;18.50;99.90;;;;;;4994732;28;20169;-78
2021/09/14 07:57:35;;;;;;;24.73;15.23;;;18.60;99.90;;;;;;4994849;28;20176;-78
2021/09/14 08:00:01;;;;;;;22.95;15.23;;;18.90;99.90;;;;;;4994404;28;20189;-78
2021/09/14 08:02:27;;;;;;;21.15;14.85;;;18.70;99.90;;;;;;4994815;28;20199;-79
2021/09/14 08:04:53;;;;;;;14.68;13.15;;;18.50;99.90;;;;;;4994482;28;20169;-81
2021/09/14 08:07:18;;;;;;;15.55;13.38;;;18.50;99.90;;;;;;4994515;28;20183;-80
2021/09/14 08:09:44;;;;;;;20.75;13.75;;;18.70;99.90;;;;;;4994238;28;20691;-80
2021/09/14 08:12:10;;;;;;;22.85;13.70;;;19.00;99.90;;;;;;4993506;28;20192;-82
2021/09/14 08:14:36;;;;;;;15.10;13.43;;;19.10;99.90;;;;;;4993952;28;20200;-80
2021/09/14 08:17:02;;;;;;;14.55;13.13;;;19.40;99.90;;;;;;4993909;28;20191;-78
2021/09/14 08:19:28;;;;;;;15.52;13.15;;;19.30;99.90;;;;;;4994309;28;20197;-78
2021/09/14 08:21:54;;;;;;;19.40;13.00;;;19.50;99.90;;;;;;4994357;28;20231;-77
2021/09/14 08:24:20;;;;;;;18.65;13.15;;;19.70;99.90;;;;;;4994142;28;20169;-78
2021/09/14 08:26:46;;;;;;;14.13;12.65;;;19.90;99.90;;;;;;4994847;28;20199;-85
2021/09/14 08:29:12;;;;;;;20.80;11.35;;;20.00;99.90;;;;;;4993559;28;20244;-85
2021/09/14 08:31:37;;;;;;;13.82;12.10;;;20.10;99.90;;;;;;4993772;28;20220;-85
2021/09/14 08:34:03;;;;;;;13.85;11.13;;;20.40;99.90;;;;;;4993473;28;20533;-85
2021/09/14 08:36:29;;;;;;;15.73;11.20;;;20.30;99.90;;;;;;4993327;28;20172;-85
2021/09/14 08:38:54;;;;;;;13.18;11.63;;;20.50;99.90;;;;;;4993339;28;20203;-85
2021/09/14 08:41:20;;;;;;;12.73;10.48;;;20.50;99.90;;;;;;4994414;28;20716;-85
2021/09/14 08:43:48;;;;;;;12.50;11.20;;;20.50;99.90;;;;;;4993596;28;20185;-86
2021/09/14 08:46:16;;;;;;;12.15;10.68;;;20.70;99.90;;;;;;4995279;28;20169;-87
2021/09/14 08:48:46;;;;;;;15.88;10.45;;;20.70;99.90;;;;;;4993679;28;20580;-86
2021/09/14 08:51:13;;;;;;;12.55;11.25;;;20.70;99.90;;;;;;4974859;28;20170;-83
2021/09/14 08:53:38;;;;;;;18.33;11.60;;;20.70;99.90;;;;;;4985431;28;20174;-86
2021/09/14 08:56:06;;;;;;;12.13;9.55;;;20.80;99.90;;;;;;4992497;28;20180;-87
2021/09/14 08:58:32;;;;;;;19.88;10.57;;;20.80;99.90;;;;;;4992938;28;20626;-87
2021/09/14 09:00:58;;;;;;;17.08;10.32;;;21.00;99.90;;;;;;4991918;28;20701;-87
2021/09/14 09:03:29;;;;;;;10.90;8.57;;;21.20;99.90;;;;;;4993338;28;20264;-85
2021/09/14 09:05:59;;;;;;;17.75;8.30;;;21.30;99.90;;;;;;4994369;28;20530;-86
2021/09/14 09:08:27;;;;;;;9.32;8.43;;;21.70;99.90;;;;;;4993323;28;20227;-86
2021/09/14 09:11:09;;;;;;;12.43;8.80;;;21.80;99.90;;;;;;4993475;28;20173;-87
2021/09/14 09:13:48;;;;;;;8.82;8.07;;;21.70;99.90;;;;;;4993310;28;20312;-85
2021/09/14 09:16:25;;;;;;;16.48;8.70;;;21.80;99.90;;;;;;4993307;28;20184;-83
2021/09/14 09:19:02;;;;;;;8.85;7.90;;;22.10;99.90;;;;;;4994601;28;20200;-88
2021/09/14 09:21:41;;;;;;;10.48;7.82;;;22.20;99.90;;;;;;4986952;28;20708;-83
2021/09/14 09:24:12;;;;;;;11.43;7.38;;;22.40;99.90;;;;;;4990691;28;20192;-83
2021/09/14 09:26:43;;;;;;;7.97;7.28;;;22.60;99.90;;;;;;4993684;28;20950;-82
2021/09/14 09:29:12;;;;;;;13.35;8.32;;;22.80;99.90;;;;;;4973428;28;20206;-79
2021/09/14 09:31:44;;;;;;;12.13;8.05;;;22.90;99.90;;;;;;4973913;28;20170;-78
2021/09/14 09:34:12;;;;;;;11.45;7.47;;;23.00;99.90;;;;;;4973276;28;20170;-78
2021/09/14 09:36:40;;;;;;;10.15;6.78;;;23.30;99.90;;;;;;4974003;28;20170;-81
2021/09/14 09:39:08;;;;;;;6.95;6.28;;;23.60;99.90;;;;;;4973637;28;20595;-81
2021/09/14 09:41:38;;;;;;;8.80;6.70;;;23.80;99.90;;;;;;4971031;28;20169;-79
2021/09/14 09:44:12;;;;;;;8.65;5.53;;;24.10;99.90;;;;;;4973222;28;20170;-79
2021/09/14 09:46:39;;;;;;;9.77;5.70;;;24.30;99.90;;;;;;4973417;28;20189;-78
2021/09/14 09:49:06;;;;;;;7.53;5.63;;;24.40;99.90;;;;;;4973107;28;20217;-78
2021/09/14 09:51:36;;;;;;;9.73;5.65;;;24.60;99.90;;;;;;4973028;28;20224;-79
2021/09/14 09:54:03;;;;;;;10.88;5.10;;;24.50;99.90;;;;;;4971706;28;20172;-79
2021/09/14 09:56:30;;;;;;;5.35;4.95;;;24.70;99.90;;;;;;4973338;28;20177;-78
2021/09/14 09:58:56;;;;;;;14.98;5.13;;;24.70;99.90;;;;;;4973461;28;20193;-78
2021/09/14 10:01:25;;;;;;;9.85;5.22;;;24.60;99.90;;;;;;4973786;28;20197;-79
2021/09/14 10:04:09;;;;;;;5.50;4.97;;;24.60;99.90;;;;;;4972159;28;20619;-78
2021/09/14 10:06:40;;;;;;;5.25;4.63;;;24.50;99.90;;;;;;4972556;28;20238;-79
2021/09/14 10:09:06;;;;;;;8.85;5.18;;;24.50;99.90;;;;;;4973307;28;20591;-79
2021/09/14 10:11:35;;;;;;;17.77;4.43;;;24.30;99.90;;;;;;4972605;28;20177;-79
2021/09/14 10:14:15;;;;;;;7.32;4.60;;;24.40;99.90;;;;;;4973387;28;20173;-79
2021/09/14 10:16:45;;;;;;;5.00;4.53;;;24.50;99.90;;;;;;4973745;28;20197;-79
2021/09/14 10:19:14;;;;;;;7.40;5.47;;;24.50;99.90;;;;;;4972092;28;20194;-79
2021/09/14 10:21:42;;;;;;;5.70;4.30;;;24.30;99.90;;;;;;4971806;28;20705;-79
2021/09/14 10:24:18;;;;;;;5.60;4.75;;;24.20;99.90;;;;;;4973254;28;20239;-79
2021/09/14 10:26:44;;;;;;;7.43;4.95;;;24.00;99.90;;;;;;4972214;28;20173;-79
2021/09/14 10:29:15;;;;;;;6.38;4.93;;;24.10;99.90;;;;;;4972965;28;20708;-79
2021/09/14 10:31:42;;;;;;;7.88;4.15;;;24.20;99.90;;;;;;4973063;28;20178;-79
2021/09/14 10:34:13;;;;;;;5.22;4.72;;;24.40;99.90;;;;;;4973291;28;20180;-79
2021/09/14 10:36:57;;;;;;;4.32;3.97;;;24.40;99.90;;;;;;4973429;28;20158;-79
2021/09/14 10:39:24;;;;;;;8.30;4.45;;;24.30;99.90;;;;;;4972972;28;20301;-79
2021/09/14 10:41:52;;;;;;;5.40;4.90;;;24.00;99.90;;;;;;4974252;28;20589;-79
2021/09/14 10:44:32;;;;;;;8.30;4.53;;;24.10;99.90;;;;;;4975634;28;20180;-79
2021/09/14 10:47:19;;;;;;;12.05;6.53;;;24.50;99.90;;;;;;4976689;28;20181;-79
2021/09/14 10:50:04;;;;;;;8.18;4.45;;;24.10;99.90;;;;;;4976762;28;20227;-80
2021/09/14 10:52:42;;;;;;;4.30;3.90;;;24.10;99.90;;;;;;4976679;28;20209;-79
2021/09/14 10:55:12;;;;;;;7.25;3.80;;;24.30;99.90;;;;;;4975080;28;20165;-87
2021/09/14 10:57:44;;;;;;;5.43;4.15;;;24.40;99.90;;;;;;4975929;28;20268;-85
2021/09/14 11:00:16;;;;;;;4.70;3.92;;;24.50;99.90;;;;;;4975742;28;20194;-86
2021/09/14 11:02:43;;;;;;;6.95;3.90;;;24.60;99.90;;;;;;4976138;28;20654;-85
2021/09/14 11:05:10;;;;;;;15.77;4.75;;;24.80;99.90;;;;;;4976236;28;20232;-84
2021/09/14 11:07:36;;;;;;;7.72;4.65;;;25.20;99.90;;;;;;4975910;28;20158;-88
2021/09/14 11:10:13;;;;;;;5.10;4.10;;;25.30;99.90;;;;;;4975867;28;20252;-86
2021/09/14 11:12:45;;;;;;;7.78;4.10;;;25.10;99.90;;;;;;4976346;28;20601;-89
2021/09/14 11:15:11;;;;;;;9.70;3.92;;;25.10;99.90;;;;;;4976567;28;20177;-84
2021/09/14 11:17:37;;;;;;;7.63;4.47;;;25.00;99.90;;;;;;4975559;28;20186;-84
2021/09/14 11:20:13;;;;;;;4.72;4.30;;;25.10;99.90;;;;;;4977286;28;20190;-86
2021/09/14 11:22:40;;;;;;;7.63;3.83;;;25.00;99.90;;;;;;4976328;28;20192;-88
2021/09/14 11:25:29;;;;;;;6.97;4.10;;;25.00;99.90;;;;;;4977241;28;20615;-89
2021/09/14 11:27:58;;;;;;;5.28;3.42;;;25.00;99.90;;;;;;4976364;28;20193;-86
2021/09/14 11:30:25;;;;;;;10.93;3.38;;;24.90;99.90;;;;;;4975876;28;20182;-88
2021/09/14 11:32:52;;;;;;;4.82;4.32;;;24.60;99.90;;;;;;4975949;28;20174;-87
2021/09/14 11:35:18;;;;;;;4.13;3.83;;;24.50;99.90;;;;;;4975313;28;20174;-85
2021/09/14 11:37:55;;;;;;;6.57;4.05;;;24.60;99.90;;;;;;4975754;28;20172;-85
2021/09/14 11:40:20;;;;;;;8.00;4.80;;;24.40;99.90;;;;;;4975444;28;20680;-85
2021/09/14 11:43:03;;;;;;;11.43;5.47;;;24.60;99.90;;;;;;4975894;28;20261;-84
2021/09/14 11:45:33;;;;;;;6.93;4.22;;;24.80;99.90;;;;;;4975951;28;20744;-86
2021/09/14 11:48:00;;;;;;;4.78;3.35;;;24.50;99.90;;;;;;4960115;28;20170;-87
2021/09/14 11:50:31;;;;;;;4.30;4.00;;;24.40;99.90;;;;;;4975549;28;20696;-86
2021/09/14 11:53:08;;;;;;;7.05;3.75;;;24.50;99.90;;;;;;4975453;28;20181;-85
2021/09/14 11:55:39;;;;;;;8.77;4.38;;;24.50;99.90;;;;;;4984184;28;20228;-84
2021/09/14 11:58:04;;;;;;;5.85;3.72;;;24.40;99.90;;;;;;4988338;28;20174;-85
2021/09/14 12:00:44;;;;;;;7.43;3.60;;;24.50;99.90;;;;;;4984312;28;20193;-87
2021/09/14 12:03:10;;;;;;;6.18;3.67;;;24.50;99.90;;;;;;4984392;28;20329;-87
2021/09/14 12:05:37;;;;;;;8.30;3.35;;;24.40;99.90;;;;;;4986008;28;20634;-88
2021/09/14 12:08:11;;;;;;;2.55;2.30;;;24.60;99.90;;;;;;4981870;28;20645;-87
2021/09/14 12:10:53;;;;;;;5.38;2.47;;;24.70;99.90;;;;;;4984023;28;20202;-88
2021/09/14 12:13:19;;;;;;;6.00;2.85;;;24.60;99.90;;;;;;4983971;28;20174;-86
2021/09/14 12:15:47;;;;;;;3.30;2.88;;;24.60;99.90;;;;;;4984037;28;20600;-87
2021/09/14 12:18:16;;;;;;;12.55;2.53;;;24.70;99.90;;;;;;4983821;28;20180;-84
2021/09/14 12:20:44;;;;;;;6.55;2.97;;;25.00;99.90;;;;;;4976445;28;20212;-89
2021/09/14 12:23:13;;;;;;;4.60;2.80;;;25.00;99.90;;;;;;4975404;28;20264;-85
2021/09/14 12:25:39;;;;;;;3.75;3.03;;;25.30;99.90;;;;;;4974229;28;20166;-84
2021/09/14 12:28:06;;;;;;;10.75;3.22;;;25.40;99.90;;;;;;4975140;28;20249;-83
2021/09/14 12:30:32;;;;;;;12.55;3.03;;;25.70;99.90;;;;;;4975058;28;20174;-83
2021/09/14 12:32:57;;;;;;;5.75;2.70;;;26.20;99.90;;;;;;4974122;28;20184;-82
2021/09/14 12:35:23;;;;;;;3.53;3.22;;;26.50;99.90;;;;;;4974161;28;20178;-83
2021/09/14 12:37:49;;;;;;;8.63;3.13;;;26.30;99.90;;;;;;4976155;28;20162;-84
2021/09/14 12:40:14;;;;;;;5.88;3.65;;;26.10;99.90;;;;;;4975404;28;20197;-84
2021/09/14 12:42:40;;;;;;;8.10;3.47;;;26.20;99.90;;;;;;4974018;28;20233;-82
2021/09/14 12:45:06;;;;;;;3.25;2.95;;;26.20;99.90;;;;;;4973972;28;20619;-83
2021/09/14 12:47:32;;;;;;;6.55;3.60;;;26.20;99.90;;;;;;4973434;28;20264;-83
2021/09/14 12:49:58;;;;;;;11.55;3.90;;;26.10;99.90;;;;;;4974229;28;20603;-87
2021/09/14 12:52:23;;;;;;;4.43;3.30;;;26.00;99.90;;;;;;4973573;28;20176;-86
2021/09/14 12:54:49;;;;;;;6.47;3.38;;;25.60;99.90;;;;;;4974852;28;20165;-84
2021/09/14 12:57:15;;;;;;;5.78;3.90;;;25.40;99.90;;;;;;4973544;28;20255;-85
2021/09/14 12:59:40;;;;;;;7.43;3.53;;;25.20;99.90;;;;;;4975507;28;20557;-84
2021/09/14 13:02:07;;;;;;;7.32;3.78;;;25.10;99.90;;;;;;4973540;28;20181;-85
2021/09/14 13:04:32;;;;;;;4.35;3.55;;;24.90;99.90;;;;;;4972669;28;20188;-87
2021/09/14 13:06:58;;;;;;;11.85;4.13;;;24.40;99.90;;;;;;4973468;28;20170;-83
2021/09/14 13:09:24;;;;;;;4.28;3.90;;;23.90;99.90;;;;;;4973499;28;20682;-84
2021/09/14 13:11:49;;;;;;;6.22;4.30;;;23.70;99.90;;;;;;4973019;28;20174;-84
2021/09/14 13:17:00;;;;;;;4.85;4.40;;;23.30;99.90;;;;;;4974941;28;20220;-85
2021/09/14 13:19:25;;;;;;;8.20;4.50;;;22.80;99.90;;;;;;4973746;28;20218;-87
2021/09/14 13:21:52;;;;;;;7.03;5.47;;;22.90;99.90;;;;;;4972777;28;20251;-84
2021/09/14 13:24:18;;;;;;;8.07;4.72;;;23.00;99.90;;;;;;4972674;28;20169;-83
2021/09/14 13:26:43;;;;;;;30.98;4.68;;;23.20;99.90;;;;;;4974083;28;20181;-81
2021/09/14 13:29:09;;;;;;;5.57;4.65;;;23.40;99.90;;;;;;4972988;28;20242;-81